sensor_id;sensor_type;location;lat;lon;timestamp;P1;durP1;ratioP1;P2;durP2;ratioP2
58512;SDS011;44302;47.914;10.642;2023-01-01T08:00:48;3.43;;;3.10;;
58512;SDS011;44302;47.914;10.642;2023-01-01T08:03:14;4.00;;;2.67;;
58512;SDS011;44302;47.914;10.642;2023-01-01T08:05:40;5.10;;;2.97;;
58512;SDS011;44302;47.914;10.642;2023-01-01T08:08:06;3.30;;;2.63;;
58512;SDS011;44302;47.914;10.642;2023-01-01T08:10:32;3.20;;;2.30;;
58512;SDS011;44302;47.914;10.642;2023-01-01T08:12:59;4.70;;;2.70;;
58512;SDS011;44302;47.914;10.642;2023-01-01T08:15:25;3.17;;;2.70;;
58512;SDS011;44302;47.914;10.642;2023-01-01T08:17:57;4.10;;;2.60;;
58512;SDS011;44302;47.914;10.642;2023-01-01T08:20:24;2.73;;;2.23;;
58512;SDS011;44302;47.914;10.642;2023-01-01T08:22:51;3.23;;;2.60;;
58512;SDS011;44302;47.914;10.642;2023-01-01T08:25:17;2.87;;;2.30;;
58512;SDS011;44302;47.914;10.642;2023-01-01T08:27:42;3.10;;;2.70;;
58512;SDS011;44302;47.914;10.642;2023-01-01T08:30:09;3.10;;;2.50;;
58512;SDS011;44302;47.914;10.642;2023-01-01T08:32:36;15.50;;;11.07;;
58512;SDS011;44302;47.914;10.642;2023-01-01T08:35:02;4.90;;;4.10;;
58512;SDS011;44302;47.914;10.642;2023-01-01T08:37:28;2.63;;;2.27;;
58512;SDS011;44302;47.914;10.642;2023-01-01T08:39:54;3.00;;;2.40;;
58512;SDS011;44302;47.914;10.642;2023-01-01T08:42:20;2.43;;;2.10;;
58512;SDS011;44302;47.914;10.642;2023-01-01T08:44:46;2.63;;;2.43;;
58512;SDS011;44302;47.914;10.642;2023-01-01T08:47:22;2.70;;;2.00;;
58512;SDS011;44302;47.914;10.642;2023-01-01T08:49:50;2.47;;;2.27;;
58512;SDS011;44302;47.914;10.642;2023-01-01T08:52:16;3.37;;;2.37;;
58512;SDS011;44302;47.914;10.642;2023-01-01T08:54:42;2.80;;;2.00;;
58512;SDS011;44302;47.914;10.642;2023-01-01T08:57:08;1.80;;;1.67;;
58512;SDS011;44302;47.914;10.642;2023-01-01T08:59:34;3.03;;;2.40;;
58512;SDS011;44302;47.914;10.642;2023-01-01T09:02:00;3.53;;;2.50;;
58512;SDS011;44302;47.914;10.642;2023-01-01T09:04:26;3.27;;;2.37;;
58512;SDS011;44302;47.914;10.642;2023-01-01T09:06:51;4.03;;;2.40;;
58512;SDS011;44302;47.914;10.642;2023-01-01T09:09:17;2.93;;;2.20;;
58512;SDS011;44302;47.914;10.642;2023-01-01T09:11:52;3.73;;;2.60;;
58512;SDS011;44302;47.914;10.642;2023-01-01T09:14:20;4.40;;;2.37;;
58512;SDS011;44302;47.914;10.642;2023-01-01T09:16:46;3.33;;;2.60;;
58512;SDS011;44302;47.914;10.642;2023-01-01T09:19:12;2.87;;;2.13;;
58512;SDS011;44302;47.914;10.642;2023-01-01T09:21:38;3.63;;;2.10;;
58512;SDS011;44302;47.914;10.642;2023-01-01T09:24:04;2.30;;;1.97;;
58512;SDS011;44302;47.914;10.642;2023-01-01T09:26:29;3.53;;;2.03;;
58512;SDS011;44302;47.914;10.642;2023-01-01T09:28:56;3.07;;;2.47;;
58512;SDS011;44302;47.914;10.642;2023-01-01T09:31:22;2.47;;;1.87;;
58512;SDS011;44302;47.914;10.642;2023-01-01T09:33:47;2.47;;;1.90;;
58512;SDS011;44302;47.914;10.642;2023-01-01T09:38:49;2.10;;;1.90;;
58512;SDS011;44302;47.914;10.642;2023-01-01T09:46:30;3.67;;;2.30;;
58512;SDS011;44302;47.914;10.642;2023-01-01T09:48:57;2.27;;;2.00;;
58512;SDS011;44302;47.914;10.642;2023-01-01T09:51:27;1.83;;;1.67;;
58512;SDS011;44302;47.914;10.642;2023-01-01T09:54:00;2.10;;;1.63;;
58512;SDS011;44302;47.914;10.642;2023-01-01T09:56:32;1.83;;;1.60;;
58512;SDS011;44302;47.914;10.642;2023-01-01T09:59:00;2.10;;;1.60;;
58512;SDS011;44302;47.914;10.642;2023-01-01T10:04:03;2.30;;;1.70;;
58512;SDS011;44302;47.914;10.642;2023-01-01T10:09:41;2.00;;;1.73;;
58512;SDS011;44302;47.914;10.642;2023-01-01T10:15:18;3.70;;;2.20;;
58512;SDS011;44302;47.914;10.642;2023-01-01T10:17:48;2.47;;;2.20;;
58512;SDS011;44302;47.914;10.642;2023-01-01T10:20:23;1.90;;;1.70;;
58512;SDS011;44302;47.914;10.642;2023-01-01T10:23:06;3.70;;;2.13;;
58512;SDS011;44302;47.914;10.642;2023-01-01T10:25:43;2.87;;;2.00;;
58512;SDS011;44302;47.914;10.642;2023-01-01T10:28:14;1.90;;;1.70;;
58512;SDS011;44302;47.914;10.642;2023-01-01T10:30:50;2.40;;;2.10;;
58512;SDS011;44302;47.914;10.642;2023-01-01T10:33:20;1.80;;;1.50;;
58512;SDS011;44302;47.914;10.642;2023-01-01T10:35:49;4.00;;;1.83;;
58512;SDS011;44302;47.914;10.642;2023-01-01T10:38:22;1.90;;;1.60;;
58512;SDS011;44302;47.914;10.642;2023-01-01T10:40:49;1.90;;;1.60;;
58512;SDS011;44302;47.914;10.642;2023-01-01T10:43:27;2.07;;;1.57;;
58512;SDS011;44302;47.914;10.642;2023-01-01T10:45:53;2.63;;;1.50;;
58512;SDS011;44302;47.914;10.642;2023-01-01T10:48:20;2.53;;;1.87;;
58512;SDS011;44302;47.914;10.642;2023-01-01T10:53:38;2.17;;;1.80;;
58512;SDS011;44302;47.914;10.642;2023-01-01T11:06:32;1.90;;;1.60;;
58512;SDS011;44302;47.914;10.642;2023-01-01T11:09:43;1.77;;;1.37;;
58512;SDS011;44302;47.914;10.642;2023-01-01T11:11:55;2.30;;;1.77;;
58512;SDS011;44302;47.914;10.642;2023-01-01T11:14:27;1.73;;;1.60;;
58512;SDS011;44302;47.914;10.642;2023-01-01T11:16:55;3.07;;;1.93;;
58512;SDS011;44302;47.914;10.642;2023-01-01T11:21:56;2.27;;;2.07;;
58512;SDS011;44302;47.914;10.642;2023-01-01T11:24:24;1.90;;;1.70;;
58512;SDS011;44302;47.914;10.642;2023-01-01T11:27:11;3.00;;;2.30;;
58512;SDS011;44302;47.914;10.642;2023-01-01T11:29:43;2.20;;;1.70;;
58512;SDS011;44302;47.914;10.642;2023-01-01T11:32:08;2.30;;;2.00;;
58512;SDS011;44302;47.914;10.642;2023-01-01T11:34:41;2.90;;;1.70;;
58512;SDS011;44302;47.914;10.642;2023-01-01T11:39:47;2.97;;;2.30;;
58512;SDS011;44302;47.914;10.642;2023-01-01T11:42:17;2.30;;;2.10;;
58512;SDS011;44302;47.914;10.642;2023-01-01T11:44:45;1.40;;;1.30;;
58512;SDS011;44302;47.914;10.642;2023-01-01T11:47:23;3.27;;;1.47;;
58512;SDS011;44302;47.914;10.642;2023-01-01T11:52:50;1.70;;;1.50;;
58512;SDS011;44302;47.914;10.642;2023-01-01T11:58:14;1.83;;;1.50;;
58512;SDS011;44302;47.914;10.642;2023-01-01T12:00:48;1.60;;;1.50;;
58512;SDS011;44302;47.914;10.642;2023-01-01T12:03:23;1.87;;;1.77;;
58512;SDS011;44302;47.914;10.642;2023-01-01T12:08:53;1.20;;;1.10;;
58512;SDS011;44302;47.914;10.642;2023-01-01T12:14:56;1.20;;;1.10;;
58512;SDS011;44302;47.914;10.642;2023-01-01T12:16:57;2.60;;;1.00;;
58512;SDS011;44302;47.914;10.642;2023-01-01T12:19:34;2.30;;;1.27;;
58512;SDS011;44302;47.914;10.642;2023-01-01T12:22:07;1.20;;;1.10;;
58512;SDS011;44302;47.914;10.642;2023-01-01T12:24:39;1.43;;;0.90;;
58512;SDS011;44302;47.914;10.642;2023-01-01T12:27:15;1.20;;;1.03;;
58512;SDS011;44302;47.914;10.642;2023-01-01T12:32:27;2.80;;;1.20;;
58512;SDS011;44302;47.914;10.642;2023-01-01T12:35:12;1.60;;;1.37;;
58512;SDS011;44302;47.914;10.642;2023-01-01T12:37:55;1.87;;;1.20;;
58512;SDS011;44302;47.914;10.642;2023-01-01T12:40:37;2.90;;;1.23;;
58512;SDS011;44302;47.914;10.642;2023-01-01T12:43:11;1.50;;;1.20;;
58512;SDS011;44302;47.914;10.642;2023-01-01T12:49:32;1.33;;;1.23;;
58512;SDS011;44302;47.914;10.642;2023-01-01T12:58:15;3.40;;;1.40;;
58512;SDS011;44302;47.914;10.642;2023-01-01T13:00:59;1.67;;;1.10;;
58512;SDS011;44302;47.914;10.642;2023-01-01T13:06:13;1.40;;;1.30;;
58512;SDS011;44302;47.914;10.642;2023-01-01T13:08:43;1.97;;;1.47;;
58512;SDS011;44302;47.914;10.642;2023-01-01T13:11:15;1.50;;;1.30;;
58512;SDS011;44302;47.914;10.642;2023-01-01T13:13:41;2.20;;;1.80;;
58512;SDS011;44302;47.914;10.642;2023-01-01T13:16:08;6.30;;;1.57;;
58512;SDS011;44302;47.914;10.642;2023-01-01T13:18:36;2.57;;;1.60;;
58512;SDS011;44302;47.914;10.642;2023-01-01T13:45:33;1.90;;;1.40;;
58512;SDS011;44302;47.914;10.642;2023-01-01T13:48:13;4.00;;;3.17;;
58512;SDS011;44302;47.914;10.642;2023-01-01T13:50:57;3.53;;;2.50;;
58512;SDS011;44302;47.914;10.642;2023-01-01T14:01:49;5.80;;;5.23;;
58512;SDS011;44302;47.914;10.642;2023-01-01T14:07:27;8.47;;;7.67;;
58512;SDS011;44302;47.914;10.642;2023-01-01T14:12:47;9.00;;;8.20;;
58512;SDS011;44302;47.914;10.642;2023-01-01T14:15:30;4.87;;;4.43;;
58512;SDS011;44302;47.914;10.642;2023-01-01T14:17:58;5.30;;;4.80;;
58512;SDS011;44302;47.914;10.642;2023-01-01T14:20:31;11.17;;;8.57;;
58512;SDS011;44302;47.914;10.642;2023-01-01T14:23:12;7.60;;;4.37;;
58512;SDS011;44302;47.914;10.642;2023-01-01T14:25:43;4.73;;;3.57;;
58512;SDS011;44302;47.914;10.642;2023-01-01T14:28:19;5.20;;;2.10;;
58512;SDS011;44302;47.914;10.642;2023-01-01T14:30:49;4.23;;;2.50;;
58512;SDS011;44302;47.914;10.642;2023-01-01T14:33:29;1.93;;;1.40;;
58512;SDS011;44302;47.914;10.642;2023-01-01T14:36:00;3.63;;;2.33;;
58512;SDS011;44302;47.914;10.642;2023-01-01T14:38:31;3.97;;;2.50;;
58512;SDS011;44302;47.914;10.642;2023-01-01T14:41:43;19.13;;;11.17;;
58512;SDS011;44302;47.914;10.642;2023-01-01T14:43:48;15.53;;;7.23;;
58512;SDS011;44302;47.914;10.642;2023-01-01T14:46:19;7.60;;;3.40;;
58512;SDS011;44302;47.914;10.642;2023-01-01T14:48:49;10.10;;;6.87;;
58512;SDS011;44302;47.914;10.642;2023-01-01T14:51:25;6.37;;;3.43;;
58512;SDS011;44302;47.914;10.642;2023-01-01T14:53:54;4.33;;;2.70;;
58512;SDS011;44302;47.914;10.642;2023-01-01T15:02:10;6.83;;;3.70;;
58512;SDS011;44302;47.914;10.642;2023-01-01T15:04:38;2.07;;;1.70;;
58512;SDS011;44302;47.914;10.642;2023-01-01T15:07:04;1.93;;;1.40;;
58512;SDS011;44302;47.914;10.642;2023-01-01T15:09:30;3.90;;;2.17;;
58512;SDS011;44302;47.914;10.642;2023-01-01T15:11:57;5.17;;;2.40;;
58512;SDS011;44302;47.914;10.642;2023-01-01T15:14:30;4.20;;;2.10;;
58512;SDS011;44302;47.914;10.642;2023-01-01T15:17:06;3.33;;;1.93;;
58512;SDS011;44302;47.914;10.642;2023-01-01T15:19:34;6.40;;;2.30;;
58512;SDS011;44302;47.914;10.642;2023-01-01T15:24:50;3.13;;;1.83;;
58512;SDS011;44302;47.914;10.642;2023-01-01T15:27:23;5.10;;;2.20;;
58512;SDS011;44302;47.914;10.642;2023-01-01T15:29:51;9.90;;;1.83;;
58512;SDS011;44302;47.914;10.642;2023-01-01T15:32:24;2.00;;;1.50;;
58512;SDS011;44302;47.914;10.642;2023-01-01T15:34:58;3.73;;;1.70;;
58512;SDS011;44302;47.914;10.642;2023-01-01T15:37:53;1.93;;;1.40;;
58512;SDS011;44302;47.914;10.642;2023-01-01T15:45:22;4.77;;;1.80;;
58512;SDS011;44302;47.914;10.642;2023-01-01T15:47:56;3.23;;;2.17;;
58512;SDS011;44302;47.914;10.642;2023-01-01T15:50:38;4.70;;;2.00;;
58512;SDS011;44302;47.914;10.642;2023-01-01T15:56:01;4.57;;;2.70;;
58512;SDS011;44302;47.914;10.642;2023-01-01T16:01:01;4.13;;;2.83;;
58512;SDS011;44302;47.914;10.642;2023-01-01T16:03:33;7.47;;;4.63;;
58512;SDS011;44302;47.914;10.642;2023-01-01T16:06:03;9.27;;;5.10;;
58512;SDS011;44302;47.914;10.642;2023-01-01T16:08:29;7.60;;;4.93;;
58512;SDS011;44302;47.914;10.642;2023-01-01T16:10:56;9.40;;;5.87;;
58512;SDS011;44302;47.914;10.642;2023-01-01T16:13:22;8.73;;;5.20;;
58512;SDS011;44302;47.914;10.642;2023-01-01T16:15:58;9.87;;;5.43;;
58512;SDS011;44302;47.914;10.642;2023-01-01T16:18:35;10.97;;;6.97;;
58512;SDS011;44302;47.914;10.642;2023-01-01T16:21:03;9.87;;;6.30;;
58512;SDS011;44302;47.914;10.642;2023-01-01T16:23:29;11.30;;;6.23;;
58512;SDS011;44302;47.914;10.642;2023-01-01T16:25:55;8.30;;;5.60;;
58512;SDS011;44302;47.914;10.642;2023-01-01T16:28:21;6.13;;;4.37;;
58512;SDS011;44302;47.914;10.642;2023-01-01T16:30:47;4.90;;;3.70;;
58512;SDS011;44302;47.914;10.642;2023-01-01T16:33:14;6.73;;;5.13;;
58512;SDS011;44302;47.914;10.642;2023-01-01T16:35:41;19.40;;;17.40;;
